Map

Track Data

SID SEASON NUMBER BASIN SUBBASIN NAME ISO_TIME NATURE LAT LON WMO_WIND WMO_PRES WMO_AGENCY TRACK_TYPE DIST2LAND LANDFALL IFLAG USA_AGENCY USA_ATCF_ID USA_LAT USA_LON USA_RECORD USA_STATUS USA_WIND USA_PRES USA_SSHS USA_R34_NE USA_R34_SE USA_R34_SW USA_R34_NW USA_R50_NE USA_R50_SE USA_R50_SW USA_R50_NW USA_R64_NE USA_R64_SE USA_R64_SW USA_R64_NW USA_POCI USA_ROCI USA_RMW USA_EYE TOKYO_LAT TOKYO_LON TOKYO_GRADE TOKYO_WIND TOKYO_PRES TOKYO_R50_DIR TOKYO_R50_LONG TOKYO_R50_SHORT TOKYO_R30_DIR TOKYO_R30_LONG TOKYO_R30_SHORT TOKYO_LAND CMA_LAT CMA_LON CMA_CAT CMA_WIND CMA_PRES HKO_LAT HKO_LON HKO_CAT HKO_WIND HKO_PRES NEWDELHI_LAT NEWDELHI_LON NEWDELHI_GRADE NEWDELHI_WIND NEWDELHI_PRES NEWDELHI_CI NEWDELHI_DP NEWDELHI_POCI REUNION_LAT REUNION_LON REUNION_TYPE REUNION_WIND REUNION_PRES REUNION_TNUM REUNION_CI REUNION_RMW REUNION_R34_NE REUNION_R34_SE REUNION_R34_SW REUNION_R34_NW REUNION_R50_NE REUNION_R50_SE REUNION_R50_SW REUNION_R50_NW REUNION_R64_NE REUNION_R64_SE REUNION_R64_SW REUNION_R64_NW BOM_LAT BOM_LON BOM_TYPE BOM_WIND BOM_PRES BOM_TNUM BOM_CI BOM_RMW BOM_R34_NE BOM_R34_SE BOM_R34_SW BOM_R34_NW BOM_R50_NE BOM_R50_SE BOM_R50_SW BOM_R50_NW BOM_R64_NE BOM_R64_SE BOM_R64_SW BOM_R64_NW BOM_ROCI BOM_POCI BOM_EYE BOM_POS_METHOD BOM_PRES_METHOD NADI_LAT NADI_LON NADI_CAT NADI_WIND NADI_PRES WELLINGTON_LAT WELLINGTON_LON WELLINGTON_WIND WELLINGTON_PRES DS824_LAT DS824_LON DS824_STAGE DS824_WIND DS824_PRES TD9636_LAT TD9636_LON TD9636_STAGE TD9636_WIND TD9636_PRES TD9635_LAT TD9635_LON TD9635_WIND TD9635_PRES TD9635_ROCI NEUMANN_LAT NEUMANN_LON NEUMANN_CLASS NEUMANN_WIND NEUMANN_PRES MLC_LAT MLC_LON MLC_CLASS MLC_WIND MLC_PRES USA_GUST BOM_GUST BOM_GUST_PER REUNION_GUST REUNION_GUST_PER USA_SEAHGT USA_SEARAD_NE USA_SEARAD_SE USA_SEARAD_SW USA_SEARAD_NW STORM_SPEED STORM_DIR
1956060S20117 1956 23 SI WA NOT_NAMED 1956-02-29 09:00:00 NR -19.6796 116.700 spur-other 100 100 ______________ -1 2 232
1956060S20117 1956 23 SI WA NOT_NAMED 1956-02-29 11:00:00 NR -19.7220 116.642 spur-other 101 101 ______________ -1 2 232
1956060S20117 1956 23 SI WA NOT_NAMED 1956-02-29 12:00:00 NR -19.7435 116.615 spur-other 101 90 ______________ -1 2 230
1956060S20117 1956 23 SI WA NOT_NAMED 1956-02-29 15:00:00 NR -19.8106 116.534 spur-other 91 81 ______________ -1 2 228
1956060S20117 1956 23 SI WA NOT_NAMED 1956-02-29 18:00:00 NR -19.8842 116.450 spur-other 81 74 ______________ -1 2 227
1956060S20117 1956 23 SI WA NOT_NAMED 1956-02-29 21:00:00 NR -19.9677 116.355 spur-other 74 74 ______________ -1 3 228
1956060S20117 1956 23 SI WA NOT_NAMED 1956-02-29 23:00:00 NR -20.0305 116.283 spur-other 79 69 ______________ -1 3 227
1956060S20117 1956 23 SI WA NOT_NAMED 1956-03-01 00:00:00 NR -20.0643 116.243 spur-other 76 76 ______________ -1 3 228
1956060S20117 1956 23 SI WA NOT_NAMED 1956-03-01 01:00:00 NR -20.1000 116.200 960 bom spur-other 76 69 ______O_______ -1 -20.1000 116.200 960 2 126
1956060S20117 1956 23 SI WA NOT_NAMED 1956-03-01 03:00:00 NR -20.1208 116.322 spur-other 69 59 ______P_______ -1 -20.1014 116.442 4 99
1956060S20117 1956 23 SI WA NOT_NAMED 1956-03-01 06:00:00 NR -20.1507 116.537 spur-other 49 44 ______P_______ -1 -20.1128 116.769 4 101
1956060S20117 1956 23 SI WA NOT_NAMED 1956-03-01 09:00:00 NR -20.1949 116.728 spur-other 44 44 ______P_______ -1 -20.1495 117.002 3 110
1956060S20117 1956 23 SI WA NOT_NAMED 1956-03-01 11:00:00 NR -20.2413 116.805 spur-other 44 33 ______P_______ -1 -20.1959 117.076 2 130
1956060S20117 1956 23 SI WA NOT_NAMED 1956-03-01 12:00:00 NR -20.2716 116.821 spur-other 33 22 ______P_______ -1 -20.2274 117.083 3 200
1956060S20117 1956 23 SI WA NOT_NAMED 1956-03-01 15:00:00 NR -20.3987 116.743 spur-other 22 11 ______P_______ -1 -20.3623 116.957 5 229
1956060S20117 1956 23 SI WA NOT_NAMED 1956-03-01 18:00:00 NR -20.5940 116.421 spur-other 23 15 ______P_______ -1 -20.5692 116.565 10 242
1956060S20117 1956 23 SI WA NOT_NAMED 1956-03-01 21:00:00 NR -20.8737 115.780 spur-other 24 24 ______P_______ -1 -20.8616 115.850 16 247
1956060S20117 1956 23 SI WA NOT_NAMED 1956-03-01 23:00:00 NR -21.1140 115.137 spur-other 56 49 ______P_______ -1 -21.1096 115.162 21 249
1956060S20117 1956 23 SI WA NOT_NAMED 1956-03-02 00:00:00 NR -21.2515 114.743 spur-other 49 49 ______P_______ -1 -21.2505 114.749 24 250
1956060S20117 1956 23 SI WA NOT_NAMED 1956-03-02 00:20:00 NR -21.3000 114.600 970 bom spur-other 54 49 ______O_______ -1 -21.3000 114.600 970 26 250
1956060S20117 1956 23 SI WA NOT_NAMED 1956-03-02 01:00:00 NR -21.4000 114.300 970 bom spur-other 54 35 ______O_______ -1 -21.4000 114.300 970 20 247
1956060S20117 1956 23 SI WA NOT_NAMED 1956-03-02 03:00:00 NR -21.6351 113.739 spur-other 45 38 ______P_______ -1 -21.6351 113.739 10 234
1956060S20117 1956 23 SI WA NOT_NAMED 1956-03-02 06:00:00 NR -21.8658 113.607 spur-other 38 23 ______P_______ -1 -21.8658 113.607 4 186
1956060S20117 1956 23 SI WA NOT_NAMED 1956-03-02 08:00:00 NR -22.0000 113.700 bom spur-other 23 23 ______O_______ -1 -22.0000 113.700 4 0
1956060S20117 1956 23 SI WA NOT_NAMED 1956-03-02 09:00:00 NR -22.0791 113.603 spur-other 30 30 ______P_______ -1 -22.0791 113.603 7 230
1956060S20117 1956 23 SI WA NOT_NAMED 1956-03-02 12:00:00 NR -22.3140 113.294 spur-other 45 45 ______P_______ -1 -22.3140 113.294 8 229
1956060S20117 1956 23 SI WA NOT_NAMED 1956-03-02 15:00:00 NR -22.5704 112.981 spur-other 61 61 ______P_______ -1 -22.5704 112.981 8 225
1956060S20117 1956 23 SI WA NOT_NAMED 1956-03-02 18:00:00 NR -22.8809 112.685 spur-other 98 98 ______P_______ -1 -22.8809 112.685 9 216
1956060S20117 1956 23 SI WA NOT_NAMED 1956-03-02 21:00:00 NR -23.2782 112.432 spur-other 130 122 ______P_______ -1 -23.2782 112.432 10 204
1956060S20117 1956 23 SI WA NOT_NAMED 1956-03-03 00:00:00 NR -23.7953 112.244 spur-other 132 129 ______P_______ -1 -23.7953 112.244 11 196
1956060S20117 1956 23 SI WA NOT_NAMED 1956-03-03 01:00:00 NR -24.0000 112.200 970 bom spur-other 129 122 ______O_______ -1 -24.0000 112.200 970 14 189
1956060S20117 1956 23 SI WA NOT_NAMED 1956-03-03 03:00:00 NR -24.4700 112.125 spur-other 131 131 ______P_______ -1 -24.4700 112.125 970 15 185
1956060S20117 1956 23 SI WA NOT_NAMED 1956-03-03 06:00:00 NR -25.2411 112.088 spur-other 141 132 ______P_______ -1 -25.2411 112.088 971 16 181
1956060S20117 1956 23 SI WA NOT_NAMED 1956-03-03 07:00:00 NR -25.5000 112.100 972 bom spur-other 132 110 ______O_______ -1 -25.5000 112.100 972 15 175
1956060S20117 1956 23 SI WA NOT_NAMED 1956-03-03 09:00:00 NR -26.0025 112.164 spur-other 110 100 ______P_______ -1 -26.0025 112.164 15 169
1956060S20117 1956 23 SI WA NOT_NAMED 1956-03-03 12:00:00 NR -26.7192 112.353 spur-other 100 100 ______P_______ -1 -26.7192 112.353 15 163
1956060S20117 1956 23 SI WA NOT_NAMED 1956-03-03 15:00:00 NR -27.3988 112.636 spur-other 126 110 ______P_______ -1 -27.3988 112.636 15 157
1956060S20117 1956 23 SI WA NOT_NAMED 1956-03-03 18:00:00 NR -28.0494 112.993 spur-other 110 96 ______P_______ -1 -28.0494 112.993 15 152
1956060S20117 1956 23 SI WA NOT_NAMED 1956-03-03 21:00:00 NR -28.6791 113.404 spur-other 102 89 ______P_______ -1 -28.6791 113.404 15 149
1956060S20117 1956 23 SI WA NOT_NAMED 1956-03-04 00:00:00 NR -29.2959 113.848 spur-other 95 87 ______P_______ -1 -29.2959 113.848 15 148
1956060S20117 1956 23 SI WA NOT_NAMED 1956-03-04 01:00:00 NR -29.5000 114.000 980 bom spur-other 95 ______O_______ -1 -29.5000 114.000 980 15 147

About IBTrACS Database

This database is a web-friendly format of International Best Track Archive for Climate Stewardship (IBTrACS), a global best track data archive curated by NOAA dating back to 1842.

Updated: 2021-11-26